Terminal Aerodrome Forecast
Issued by NWS Sioux Falls, SD

Home | Current Version | Previous Version | Text Only | Print | Product List | Glossary On
Versions: 1 2 3 4 5 6 7 8 9 10 11 12
000
FTUS43 KFSD 271736
TAFHON
TAF
KHON 271736Z 2718/2818 24006KT P6SM FEW070
     FM272100 17008KT P6SM SCT080
     FM280200 15007KT P6SM FEW100 OVC250
     FM281000 16008KT P6SM VCSH SCT050 BKN100
     FM281400 18012G18KT P6SM FEW060=

USA.gov is the U.S. government's official web portal to all federal, state and local government web resources and services.